Time;durP1;ratioP1;P1;durP2;ratioP2;P2;SDS_P1;SDS_P2;PMS_P1;PMS_P2;Temp;Humidity;BMP_temperature;BMP_pressure;BME280_temperature;BME280_humidity;BME280_pressure;Samples;Min_cycle;Max_cycle;Signal;HPM_P1;HPM_P2
2023/02/04 00:02:28;;;;;;;7.45;3.83;;;22.60;46.60;;;;;;6112045;28;80306;-57
2023/02/04 00:05:29;;;;;;;7.35;3.95;;;22.60;46.60;;;;;;6125653;28;81959;-58
2023/02/04 00:08:29;;;;;;;9.60;4.80;;;22.60;46.60;;;;;;6118226;28;80538;-59
2023/02/04 00:11:30;;;;;;;7.82;3.85;;;22.60;46.60;;;;;;6127259;28;80571;-59
2023/02/04 00:14:30;;;;;;;9.40;4.35;;;22.60;46.80;;;;;;6120292;28;81467;-59
2023/02/04 00:17:31;;;;;;;11.88;4.85;;;22.60;46.60;;;;;;6137200;28;82031;-58
2023/02/04 00:20:31;;;;;;;6.78;3.75;;;22.60;46.50;;;;;;6136046;28;83976;-59
2023/02/04 00:23:32;;;;;;;10.18;3.70;;;22.60;46.50;;;;;;6135710;28;88392;-59
2023/02/04 00:26:32;;;;;;;9.30;4.20;;;22.60;46.40;;;;;;6124930;28;80346;-58
2023/02/04 00:29:33;;;;;;;9.15;4.20;;;22.60;46.40;;;;;;6123122;28;80444;-58
2023/02/04 00:32:33;;;;;;;10.20;3.90;;;22.60;47.00;;;;;;6138059;28;80879;-58
2023/02/04 00:35:36;;;;;;;9.25;4.18;;;22.60;47.60;;;;;;6127397;28;81560;-58
2023/02/04 00:38:36;;;;;;;7.88;4.15;;;22.60;46.70;;;;;;6126559;28;81255;-58
2023/02/04 00:41:37;;;;;;;7.43;4.00;;;22.60;46.50;;;;;;6148804;28;82516;-58
2023/02/04 00:44:37;;;;;;;6.50;3.10;;;22.60;46.50;;;;;;6131748;28;80535;-58
2023/02/04 00:47:38;;;;;;;7.28;3.30;;;22.60;46.40;;;;;;6126735;28;81729;-59
2023/02/04 00:50:40;;;;;;;9.23;3.58;;;22.60;46.30;;;;;;6135208;28;80934;-58
2023/02/04 00:53:40;;;;;;;8.00;3.20;;;22.60;46.40;;;;;;6126504;28;80372;-58
2023/02/04 00:56:41;;;;;;;6.53;3.33;;;22.60;46.30;;;;;;6116847;28;81852;-58
2023/02/04 00:59:41;;;;;;;6.47;3.50;;;22.70;46.50;;;;;;6126102;28;82956;-57
2023/02/04 01:02:42;;;;;;;8.55;4.20;;;22.70;46.30;;;;;;6119798;28;85429;-58
2023/02/04 01:05:42;;;;;;;6.03;3.47;;;22.60;46.10;;;;;;6104118;28;80504;-57
2023/02/04 01:08:44;;;;;;;5.22;2.75;;;22.60;46.10;;;;;;6117599;28;82495;-55
2023/02/04 01:11:45;;;;;;;8.07;3.15;;;22.70;46.40;;;;;;6119670;28;80298;-58
2023/02/04 01:14:45;;;;;;;8.77;3.13;;;22.70;46.40;;;;;;6127322;28;80450;-58
2023/02/04 01:17:46;;;;;;;5.70;2.83;;;22.60;46.40;;;;;;6138140;28;82047;-58
2023/02/04 01:20:47;;;;;;;6.22;3.05;;;22.70;46.30;;;;;;6126627;28;80249;-58
2023/02/04 01:23:49;;;;;;;4.75;2.53;;;22.60;46.30;;;;;;6128639;28;80469;-56
2023/02/04 01:26:50;;;;;;;6.30;2.90;;;22.70;46.20;;;;;;6139957;28;80806;-58
2023/02/04 01:29:51;;;;;;;4.57;2.15;;;22.70;46.10;;;;;;6114963;28;83846;-59
2023/02/04 01:32:51;;;;;;;4.78;2.35;;;22.70;46.30;;;;;;6119223;28;83439;-58
2023/02/04 01:35:52;;;;;;;3.95;2.33;;;22.60;46.10;;;;;;6119120;28;82419;-58
2023/02/04 01:38:52;;;;;;;5.47;2.65;;;22.70;46.20;;;;;;6121188;28;82011;-58
2023/02/04 01:41:53;;;;;;;5.05;2.40;;;22.60;46.20;;;;;;6129196;28;81674;-68
2023/02/04 01:44:53;;;;;;;4.95;2.33;;;22.60;46.00;;;;;;6130131;28;83934;-67
2023/02/04 01:47:57;;;;;;;4.65;2.15;;;22.60;46.00;;;;;;6112973;28;83669;-66
2023/02/04 01:50:57;;;;;;;4.47;2.17;;;22.60;46.10;;;;;;6110893;28;80374;-67
2023/02/04 01:53:59;;;;;;;3.95;2.20;;;22.60;46.00;;;;;;6146055;28;82449;-66
2023/02/04 01:56:59;;;;;;;4.95;2.10;;;22.60;46.00;;;;;;6128574;28;81117;-65
2023/02/04 02:00:00;;;;;;;4.05;1.90;;;22.60;46.00;;;;;;6112119;28;83068;-67
2023/02/04 02:03:02;;;;;;;3.47;2.00;;;22.60;45.80;;;;;;6117783;28;81631;-67
2023/02/04 02:06:02;;;;;;;3.03;1.77;;;22.60;45.80;;;;;;6114856;28;83215;-68
2023/02/04 02:09:03;;;;;;;3.72;2.13;;;22.60;45.80;;;;;;6123683;28;83533;-68
2023/02/04 02:12:04;;;;;;;3.45;2.13;;;22.60;45.90;;;;;;6144680;28;81976;-67
2023/02/04 02:15:04;;;;;;;2.72;1.63;;;22.60;45.90;;;;;;6129266;28;81302;-68
2023/02/04 02:18:05;;;;;;;3.65;1.92;;;22.60;46.00;;;;;;6123995;28;81440;-65
2023/02/04 02:21:05;;;;;;;3.35;1.73;;;22.60;46.00;;;;;;6104162;28;80497;-67
2023/02/04 02:24:06;;;;;;;2.50;1.67;;;22.60;46.10;;;;;;6125685;28;80451;-65
2023/02/04 02:27:07;;;;;;;3.40;1.80;;;22.70;46.10;;;;;;6142446;28;83362;-69
2023/02/04 02:30:07;;;;;;;3.15;1.65;;;22.60;45.90;;;;;;6146534;28;80315;-66
2023/02/04 02:33:09;;;;;;;2.53;1.42;;;22.60;46.20;;;;;;6128045;28;82552;-66
2023/02/04 02:36:09;;;;;;;3.05;1.80;;;22.60;46.10;;;;;;6130725;28;80816;-68
2023/02/04 02:39:10;;;;;;;3.58;1.58;;;22.70;46.10;;;;;;6145540;28;81526;-67
2023/02/04 02:42:10;;;;;;;3.42;1.70;;;22.60;46.10;;;;;;6122071;28;81658;-66
2023/02/04 02:45:11;;;;;;;1.55;1.25;;;22.60;45.90;;;;;;6107591;28;80825;-68
2023/02/04 02:48:11;;;;;;;3.08;1.50;;;22.60;45.90;;;;;;6130711;28;80546;-68
2023/02/04 02:51:12;;;;;;;2.20;1.33;;;22.60;45.90;;;;;;6131188;28;87831;-68
2023/02/04 02:54:12;;;;;;;1.98;1.35;;;22.70;45.90;;;;;;6120129;28;80566;-67
2023/02/04 02:57:13;;;;;;;3.42;1.35;;;22.70;46.10;;;;;;6119889;28;80666;-65
2023/02/04 03:00:13;;;;;;;2.15;1.20;;;22.70;46.30;;;;;;6106583;28;80860;-64
2023/02/04 03:03:14;;;;;;;2.05;1.40;;;22.60;46.40;;;;;;6112142;28;81437;-65
2023/02/04 03:06:15;;;;;;;1.92;1.27;;;22.60;46.20;;;;;;6105981;28;82207;-66
2023/02/04 03:09:16;;;;;;;2.65;1.15;;;22.70;46.30;;;;;;6127158;28;81828;-66
2023/02/04 03:12:20;;;;;;;2.33;1.70;;;22.60;46.00;;;;;;6128113;28;81030;-66
2023/02/04 03:15:21;;;;;;;1.98;1.10;;;22.70;46.20;;;;;;6127135;28;82741;-67
2023/02/04 03:18:21;;;;;;;1.60;1.08;;;22.70;46.00;;;;;;6129178;28;80227;-66
2023/02/04 03:21:22;;;;;;;1.70;0.90;;;22.70;45.90;;;;;;6118453;28;80608;-67
2023/02/04 03:24:22;;;;;;;2.53;1.20;;;22.70;46.20;;;;;;6128727;28;82983;-67
2023/02/04 03:27:23;;;;;;;1.15;0.88;;;22.70;46.10;;;;;;6137514;28;81605;-68
2023/02/04 03:30:24;;;;;;;1.63;0.93;;;22.70;46.10;;;;;;6127174;28;83863;-47
2023/02/04 03:33:26;;;;;;;1.67;1.38;;;22.70;46.10;;;;;;6126364;28;80989;-49
2023/02/04 03:36:27;;;;;;;2.88;1.40;;;22.70;46.00;;;;;;6114308;28;84908;-46
2023/02/04 03:39:27;;;;;;;2.05;1.10;;;22.70;45.90;;;;;;6114117;28;80293;-46
2023/02/04 03:42:28;;;;;;;1.48;0.98;;;22.70;45.80;;;;;;6117938;28;80430;-47
2023/02/04 03:45:29;;;;;;;1.80;1.00;;;22.70;45.70;;;;;;6110434;28;82093;-50
2023/02/04 03:48:29;;;;;;;1.45;1.10;;;22.70;45.70;;;;;;6124086;28;81687;-47
2023/02/04 03:51:30;;;;;;;1.48;0.93;;;22.70;46.30;;;;;;6114255;28;83839;-48
2023/02/04 03:54:30;;;;;;;1.88;1.30;;;22.80;46.80;;;;;;6132512;28;81004;-48
2023/02/04 03:57:31;;;;;;;1.30;1.20;;;22.80;46.40;;;;;;6118770;28;81922;-47
2023/02/04 04:00:31;;;;;;;1.10;0.93;;;22.80;46.50;;;;;;6121860;28;80624;-47
2023/02/04 04:03:32;;;;;;;1.25;0.98;;;22.80;46.50;;;;;;6127698;28;85568;-50
2023/02/04 04:06:32;;;;;;;1.05;0.95;;;22.80;46.60;;;;;;6141355;28;82979;-51
2023/02/04 04:09:33;;;;;;;1.00;0.95;;;22.80;46.50;;;;;;6137532;28;80587;-56
2023/02/04 04:12:33;;;;;;;1.08;0.98;;;22.80;46.40;;;;;;6142300;28;80688;-55
2023/02/04 04:15:34;;;;;;;2.53;1.02;;;22.80;46.30;;;;;;6115810;28;80829;-55
2023/02/04 04:18:35;;;;;;;1.13;0.90;;;22.80;46.50;;;;;;6140840;28;80417;-55
2023/02/04 04:21:35;;;;;;;2.15;0.93;;;22.80;46.60;;;;;;6120920;28;81430;-54
2023/02/04 04:24:36;;;;;;;1.45;0.93;;;22.70;46.70;;;;;;6132755;28;80250;-53
2023/02/04 04:27:36;;;;;;;1.05;0.85;;;22.70;46.50;;;;;;6117202;28;80651;-57
2023/02/04 04:30:37;;;;;;;3.55;0.90;;;22.70;46.60;;;;;;6129728;28;80445;-55
2023/02/04 04:33:38;;;;;;;2.45;1.20;;;22.70;46.50;;;;;;6134821;28;80585;-57
2023/02/04 04:36:38;;;;;;;1.10;0.90;;;22.70;46.60;;;;;;6116967;28;80829;-56
2023/02/04 04:39:39;;;;;;;3.45;0.90;;;22.70;46.60;;;;;;6123176;28;80444;-54
2023/02/04 04:42:39;;;;;;;1.20;0.88;;;22.70;46.80;;;;;;6126315;28;80333;-54
2023/02/04 04:45:40;;;;;;;1.67;0.95;;;22.70;46.80;;;;;;6116534;28;81264;-59
2023/02/04 04:48:41;;;;;;;1.98;0.93;;;22.80;46.90;;;;;;6114612;28;80182;-57
2023/02/04 04:51:41;;;;;;;2.35;1.40;;;22.80;46.70;;;;;;6119935;28;82579;-63
2023/02/04 04:54:42;;;;;;;5.28;1.38;;;22.80;46.40;;;;;;6127267;28;82170;-60
2023/02/04 04:57:42;;;;;;;2.40;1.13;;;22.80;46.60;;;;;;6129067;28;80422;-58
2023/02/04 05:00:43;;;;;;;4.95;1.40;;;22.80;46.90;;;;;;6145543;28;83653;-58
2023/02/04 05:03:43;;;;;;;5.68;1.73;;;22.80;47.00;;;;;;6131637;28;80407;-57
2023/02/04 05:06:44;;;;;;;6.70;1.90;;;22.80;46.40;;;;;;6115323;28;82236;-59
2023/02/04 05:09:45;;;;;;;9.93;2.00;;;22.90;45.70;;;;;;6106059;28;80435;-62
2023/02/04 05:12:45;;;;;;;3.75;1.92;;;22.90;45.60;;;;;;6127154;28;80922;-58
2023/02/04 05:15:46;;;;;;;5.85;2.08;;;23.00;45.10;;;;;;6131613;28;84659;-57
2023/02/04 05:18:46;;;;;;;5.15;1.75;;;23.10;45.40;;;;;;6129198;28;80391;-57
2023/02/04 05:21:47;;;;;;;7.80;1.63;;;23.10;45.40;;;;;;6123488;28;84414;-56
2023/02/04 05:24:48;;;;;;;4.63;2.10;;;23.20;45.30;;;;;;6103950;28;80802;-57
2023/02/04 05:27:48;;;;;;;2.60;1.85;;;23.20;45.20;;;;;;6110296;28;80768;-55
2023/02/04 05:30:49;;;;;;;2.17;1.98;;;23.20;45.50;;;;;;6116208;28;82454;-58
2023/02/04 05:33:49;;;;;;;5.88;1.60;;;23.30;45.30;;;;;;6114718;28;80514;-58
2023/02/04 05:36:50;;;;;;;6.15;2.17;;;23.30;45.40;;;;;;6111232;28;81176;-58
2023/02/04 05:39:50;;;;;;;2.88;2.00;;;23.30;45.50;;;;;;6118954;28;80450;-58
2023/02/04 05:42:51;;;;;;;3.10;2.00;;;23.40;45.20;;;;;;6122859;28;80593;-59
2023/02/04 05:45:51;;;;;;;2.50;1.70;;;23.30;45.00;;;;;;6113556;28;80946;-60
2023/02/04 05:48:52;;;;;;;3.75;1.60;;;23.30;45.40;;;;;;6122944;28;81925;-60
2023/02/04 05:51:53;;;;;;;2.92;2.10;;;23.30;45.40;;;;;;6121036;28;80406;-60
2023/02/04 05:54:53;;;;;;;3.15;2.00;;;23.30;45.30;;;;;;6130840;28;80724;-60
2023/02/04 05:57:54;;;;;;;5.50;2.05;;;23.30;44.90;;;;;;6108451;28;81248;-66
2023/02/04 06:00:54;;;;;;;4.57;1.80;;;23.30;44.10;;;;;;6126543;28;80590;-66
2023/02/04 06:03:55;;;;;;;4.25;2.00;;;23.30;43.60;;;;;;6115685;28;80250;-64
2023/02/04 06:06:55;;;;;;;3.45;2.00;;;23.30;43.00;;;;;;6121113;28;80445;-66
2023/02/04 06:09:56;;;;;;;2.95;1.90;;;23.30;42.60;;;;;;6111155;28;80450;-65
2023/02/04 06:12:56;;;;;;;3.92;1.67;;;23.30;42.90;;;;;;6113653;28;80530;-65
2023/02/04 06:15:57;;;;;;;2.28;1.80;;;23.30;43.30;;;;;;6110146;28;83183;-64
2023/02/04 06:18:57;;;;;;;2.50;1.67;;;23.20;43.20;;;;;;6107092;28;80605;-63
2023/02/04 06:21:58;;;;;;;2.58;1.95;;;23.20;43.30;;;;;;6106225;28;81125;-62
2023/02/04 06:24:58;;;;;;;4.03;2.30;;;23.20;43.30;;;;;;6111550;28;80748;-61
2023/02/04 06:27:59;;;;;;;2.63;1.63;;;23.20;43.20;;;;;;6104982;28;80951;-62
2023/02/04 06:31:00;;;;;;;2.15;1.70;;;23.10;43.10;;;;;;6094446;28;84597;-61
2023/02/04 06:34:00;;;;;;;6.65;2.10;;;23.10;43.10;;;;;;6101059;28;81068;-63
2023/02/04 06:37:01;;;;;;;3.03;1.80;;;23.10;43.00;;;;;;6105463;28;81294;-60
2023/02/04 06:40:01;;;;;;;4.35;1.92;;;23.10;43.00;;;;;;6095920;28;81613;-62
2023/02/04 06:43:02;;;;;;;4.28;1.70;;;23.10;42.70;;;;;;6110472;28;81866;-58
2023/02/04 06:46:02;;;;;;;3.42;2.05;;;23.00;43.00;;;;;;6092655;28;83947;-61
2023/02/04 06:49:03;;;;;;;5.07;2.35;;;23.00;43.60;;;;;;6103874;28;81161;-59
2023/02/04 06:52:04;;;;;;;6.40;3.30;;;23.00;43.90;;;;;;6084243;28;81526;-62
2023/02/04 06:55:05;;;;;;;4.13;1.95;;;23.00;44.30;;;;;;6100837;28;81033;-59
2023/02/04 06:58:06;;;;;;;4.97;2.35;;;23.00;44.30;;;;;;6100165;28;80484;-59
2023/02/04 07:01:06;;;;;;;3.25;2.03;;;23.00;44.30;;;;;;6103268;28;81287;-61
2023/02/04 07:04:07;;;;;;;3.15;2.25;;;23.00;44.00;;;;;;6096463;28;80348;-61
2023/02/04 07:07:07;;;;;;;3.58;2.30;;;23.00;44.30;;;;;;6102641;28;81515;-62
2023/02/04 07:10:08;;;;;;;3.22;2.33;;;23.00;44.30;;;;;;6100685;28;80674;-59
2023/02/04 07:13:08;;;;;;;4.07;2.30;;;23.00;44.30;;;;;;6105018;28;82505;-62
2023/02/04 07:16:09;;;;;;;2.97;2.30;;;23.00;43.90;;;;;;6101480;28;80833;-61
2023/02/04 07:19:09;;;;;;;6.65;3.10;;;23.00;44.10;;;;;;6101933;28;85855;-62
2023/02/04 07:22:10;;;;;;;6.55;2.30;;;23.00;43.20;;;;;;6098908;28;83019;-59
2023/02/04 07:25:13;;;;;;;3.40;2.17;;;23.00;42.80;;;;;;6104065;28;82083;-61
2023/02/04 07:28:14;;;;;;;3.28;2.33;;;23.00;42.40;;;;;;6099374;28;81455;-59
2023/02/04 07:31:14;;;;;;;3.83;2.05;;;23.00;42.10;;;;;;6114376;28;81172;-63
2023/02/04 07:34:15;;;;;;;3.90;2.35;;;23.00;41.60;;;;;;6104004;28;81011;-59
2023/02/04 07:37:16;;;;;;;3.78;1.95;;;23.00;41.30;;;;;;6117027;28;80893;-57
2023/02/04 07:40:16;;;;;;;4.97;2.13;;;23.00;41.20;;;;;;6113848;28;80348;-58
2023/02/04 07:43:17;;;;;;;4.20;1.83;;;22.90;41.60;;;;;;6117512;28;85622;-57
2023/02/04 07:46:18;;;;;;;3.20;2.28;;;22.90;41.60;;;;;;6128270;28;84890;-59
2023/02/04 07:49:18;;;;;;;5.20;2.33;;;23.00;41.90;;;;;;6096633;28;84766;-59
2023/02/04 07:52:19;;;;;;;4.07;2.17;;;22.90;41.80;;;;;;6110945;28;80494;-59
2023/02/04 07:55:19;;;;;;;5.55;2.83;;;22.90;41.90;;;;;;6112017;28;85963;-59
2023/02/04 07:58:20;;;;;;;3.60;2.50;;;22.90;41.60;;;;;;6106219;28;80752;-59
2023/02/04 08:01:20;;;;;;;5.13;2.60;;;22.90;41.40;;;;;;6099185;28;80891;-58
2023/02/04 08:04:21;;;;;;;3.78;2.08;;;22.90;41.20;;;;;;6110027;28;81841;-62
2023/02/04 08:07:21;;;;;;;2.78;2.08;;;22.90;40.90;;;;;;6119881;28;80396;-57
2023/02/04 08:10:22;;;;;;;6.45;2.28;;;22.90;40.50;;;;;;6121027;28;80178;-61
2023/02/04 08:13:22;;;;;;;3.53;2.28;;;22.80;40.30;;;;;;6116590;28;82034;-58
2023/02/04 08:16:23;;;;;;;4.22;2.17;;;22.90;40.30;;;;;;6124504;28;81324;-60
2023/02/04 08:19:23;;;;;;;3.17;1.95;;;22.90;40.10;;;;;;6111571;28;81967;-58
2023/02/04 08:22:24;;;;;;;4.10;2.40;;;22.90;40.10;;;;;;6105860;28;82115;-58
2023/02/04 08:25:25;;;;;;;3.80;2.20;;;22.90;40.00;;;;;;6107836;28;81384;-62
2023/02/04 08:28:25;;;;;;;5.50;2.60;;;22.90;39.90;;;;;;6106864;28;82155;-62
2023/02/04 08:31:26;;;;;;;4.63;2.53;;;22.90;39.90;;;;;;6103482;28;83080;-61
2023/02/04 08:34:26;;;;;;;3.45;2.35;;;22.90;39.80;;;;;;6088411;28;82492;-61
2023/02/04 08:37:27;;;;;;;3.67;2.30;;;22.90;39.80;;;;;;6115223;28;86434;-67
2023/02/04 08:40:27;;;;;;;3.20;2.10;;;22.90;39.80;;;;;;6122564;28;80942;-62
2023/02/04 08:43:28;;;;;;;7.80;2.13;;;22.90;40.30;;;;;;6115032;28;81573;-60
2023/02/04 08:46:29;;;;;;;2.83;1.90;;;22.90;40.30;;;;;;6116463;28;80719;-68
2023/02/04 08:49:29;;;;;;;3.63;2.17;;;23.00;40.00;;;;;;6102619;28;80571;-64
2023/02/04 08:52:30;;;;;;;6.72;2.65;;;23.00;40.00;;;;;;6108232;28;80804;-65
2023/02/04 08:55:30;;;;;;;3.35;1.95;;;23.00;40.80;;;;;;6104284;28;80728;-61
2023/02/04 08:58:31;;;;;;;2.33;1.85;;;23.10;40.70;;;;;;6099434;28;80154;-61
2023/02/04 09:01:31;;;;;;;3.22;2.10;;;23.10;40.80;;;;;;6113084;28;82481;-62
2023/02/04 09:04:32;;;;;;;4.60;2.35;;;23.10;40.30;;;;;;6112744;28;81135;-63
2023/02/04 09:07:33;;;;;;;5.10;1.83;;;23.20;39.90;;;;;;6102777;28;82327;-65
2023/02/04 09:10:33;;;;;;;4.07;2.33;;;23.20;39.90;;;;;;6107010;28;84189;-62
2023/02/04 09:13:34;;;;;;;3.70;2.15;;;23.20;39.90;;;;;;6102303;28;87312;-64
2023/02/04 09:16:34;;;;;;;20.73;8.32;;;23.20;39.90;;;;;;6097911;28;80481;-62
2023/02/04 09:19:35;;;;;;;113.40;53.03;;;23.20;39.90;;;;;;6126387;28;81834;-63
2023/02/04 09:22:36;;;;;;;205.70;96.78;;;23.20;40.00;;;;;;6112733;28;83118;-63
2023/02/04 09:25:37;;;;;;;220.93;100.57;;;23.20;40.00;;;;;;6111761;28;83423;-62
2023/02/04 09:28:37;;;;;;;289.73;130.57;;;23.20;39.90;;;;;;6112184;28;85636;-62
2023/02/04 09:31:38;;;;;;;292.08;138.50;;;23.20;39.90;;;;;;6124190;28;85443;-63
2023/02/04 09:34:38;;;;;;;341.35;152.02;;;23.20;39.90;;;;;;6115102;28;86572;-60
2023/02/04 09:37:39;;;;;;;232.30;110.38;;;23.20;39.90;;;;;;6123745;28;88733;-58
2023/02/04 09:40:40;;;;;;;191.25;87.88;;;23.20;39.80;;;;;;6117960;28;85215;-58
2023/02/04 09:43:40;;;;;;;171.65;78.68;;;23.20;39.50;;;;;;6113652;28;85908;-58
2023/02/04 09:46:41;;;;;;;146.30;69.40;;;23.20;39.50;;;;;;6122346;28;87929;-58
2023/02/04 09:49:42;;;;;;;128.68;61.58;;;23.20;39.20;;;;;;6116656;28;82935;-58
2023/02/04 09:52:42;;;;;;;121.07;55.63;;;23.20;39.10;;;;;;6121592;28;83529;-59
2023/02/04 09:55:43;;;;;;;114.32;51.45;;;23.20;39.00;;;;;;6114212;28;87753;-60
2023/02/04 09:58:43;;;;;;;116.80;50.05;;;23.20;38.90;;;;;;6115604;28;84460;-58
2023/02/04 10:01:44;;;;;;;97.97;43.40;;;23.20;38.90;;;;;;6121985;28;83155;-59
2023/02/04 10:04:44;;;;;;;88.00;40.92;;;23.20;38.90;;;;;;6122986;28;86934;-59
2023/02/04 10:07:45;;;;;;;85.75;40.03;;;23.20;39.00;;;;;;6120001;28;83537;-59
2023/02/04 10:10:46;;;;;;;86.53;37.10;;;23.20;38.90;;;;;;6126522;28;87114;-59
2023/02/04 10:13:49;;;;;;;72.72;35.25;;;23.30;39.00;;;;;;6124474;28;83866;-59
2023/02/04 10:16:49;;;;;;;64.90;32.55;;;23.30;39.10;;;;;;6112173;28;83671;-60
2023/02/04 10:19:50;;;;;;;62.83;29.73;;;23.20;39.10;;;;;;6130917;28;84605;-58
2023/02/04 10:22:50;;;;;;;58.08;28.15;;;23.20;39.00;;;;;;6145063;28;83444;-58
2023/02/04 10:25:51;;;;;;;55.15;26.48;;;23.20;39.00;;;;;;6132613;28;84195;-59
2023/02/04 10:28:51;;;;;;;47.88;24.52;;;23.10;38.80;;;;;;6128375;28;83293;-59
2023/02/04 10:31:52;;;;;;;45.67;22.90;;;23.10;38.80;;;;;;6128555;28;82838;-59
2023/02/04 10:34:52;;;;;;;41.47;21.33;;;23.10;38.70;;;;;;6133086;28;83484;-59
2023/02/04 10:37:53;;;;;;;43.28;20.92;;;23.10;38.70;;;;;;6123582;28;83129;-59
2023/02/04 10:40:53;;;;;;;42.65;19.95;;;23.10;38.80;;;;;;6126116;28;83390;-60
2023/02/04 10:43:54;;;;;;;37.67;18.27;;;23.00;38.80;;;;;;6119609;28;84119;-60
2023/02/04 10:46:54;;;;;;;33.85;17.05;;;23.00;38.80;;;;;;6123137;28;83084;-60
2023/02/04 10:49:55;;;;;;;31.90;16.80;;;23.00;38.40;;;;;;6120206;28;84217;-59
2023/02/04 10:54:28;;;;;;;31.98;16.63;;;23.10;38.50;;;;;;6118388;28;83628;-60
2023/02/04 10:56:16;;;;;;;32.83;15.48;;;23.10;38.70;;;;;;6105406;28;83785;-58
2023/02/04 10:59:16;;;;;;;31.55;13.57;;;23.20;38.60;;;;;;6123458;28;83042;-61
2023/02/04 11:02:17;;;;;;;25.30;13.55;;;23.50;38.40;;;;;;6104969;28;82910;-57
2023/02/04 11:05:17;;;;;;;30.40;13.52;;;23.60;38.10;;;;;;6103245;28;83064;-61
2023/02/04 11:08:18;;;;;;;22.98;11.75;;;23.70;37.90;;;;;;6104230;28;83524;-60
2023/02/04 11:11:19;;;;;;;26.48;11.77;;;23.70;37.80;;;;;;6100376;28;84900;-59
2023/02/04 11:14:19;;;;;;;19.65;11.43;;;23.90;37.20;;;;;;6101613;28;83549;-59
2023/02/04 11:17:20;;;;;;;25.35;11.35;;;23.90;37.30;;;;;;6122120;28;83110;-58
2023/02/04 11:20:20;;;;;;;21.65;9.65;;;23.80;37.10;;;;;;6134799;28;84686;-60
2023/02/04 11:23:21;;;;;;;21.63;9.85;;;24.00;37.00;;;;;;6097353;28;83832;-58
2023/02/04 11:26:22;;;;;;;19.52;9.45;;;24.10;36.90;;;;;;6106103;28;81324;-57
2023/02/04 11:29:23;;;;;;;21.88;9.15;;;24.10;36.70;;;;;;6121465;28;82313;-59
2023/02/04 11:32:23;;;;;;;21.95;9.02;;;24.00;37.30;;;;;;6121132;28;80888;-58
2023/02/04 11:35:24;;;;;;;17.95;8.48;;;23.90;37.50;;;;;;6108918;28;80674;-61
2023/02/04 11:38:24;;;;;;;18.80;8.95;;;23.80;37.50;;;;;;6115335;28;80774;-59
2023/02/04 11:41:25;;;;;;;15.85;8.02;;;23.70;38.00;;;;;;6086198;28;82669;-59
2023/02/04 11:44:26;;;;;;;15.93;7.30;;;23.70;37.60;;;;;;6109866;28;81223;-59
2023/02/04 11:47:26;;;;;;;13.32;7.15;;;23.70;37.30;;;;;;6115082;28;80601;-65
2023/02/04 11:50:29;;;;;;;15.43;7.00;;;23.80;37.30;;;;;;6117704;28;84266;-62
2023/02/04 11:53:29;;;;;;;12.82;6.25;;;23.80;37.50;;;;;;6106752;28;80474;-62
2023/02/04 11:56:30;;;;;;;13.13;6.68;;;23.80;36.90;;;;;;6116480;28;86332;-68
2023/02/04 11:59:30;;;;;;;12.20;6.28;;;23.80;37.20;;;;;;6119947;28;80467;-67
2023/02/04 12:02:31;;;;;;;11.63;6.20;;;23.70;38.70;;;;;;6103642;28;85129;-69
2023/02/04 12:05:31;;;;;;;11.63;6.13;;;23.70;38.90;;;;;;6118525;28;81281;-67
2023/02/04 12:08:32;;;;;;;14.32;5.72;;;24.00;38.60;;;;;;6117076;28;87955;-69
2023/02/04 12:11:33;;;;;;;8.77;5.85;;;24.10;38.50;;;;;;6118345;28;80404;-67
2023/02/04 12:14:33;;;;;;;10.23;5.00;;;24.30;38.20;;;;;;6109554;28;81468;-68
2023/02/04 12:17:34;;;;;;;12.00;5.50;;;24.40;37.80;;;;;;6101087;28;83177;-66
2023/02/04 12:20:34;;;;;;;10.23;5.07;;;24.40;37.30;;;;;;6113058;28;81141;-67
2023/02/04 12:23:35;;;;;;;11.23;4.80;;;24.30;38.30;;;;;;6107174;28;85195;-68
2023/02/04 12:26:35;;;;;;;6.80;4.20;;;24.30;38.20;;;;;;6107897;28;81674;-68
2023/02/04 12:29:36;;;;;;;6.97;4.00;;;24.10;38.10;;;;;;6100266;28;80889;-67
2023/02/04 12:32:36;;;;;;;9.88;4.53;;;24.10;38.10;;;;;;6097324;28;80545;-68
2023/02/04 12:35:37;;;;;;;7.68;4.45;;;24.10;38.00;;;;;;6109830;28;80953;-68
2023/02/04 12:38:37;;;;;;;9.80;4.15;;;24.10;37.80;;;;;;6125900;28;80752;-68
2023/02/04 12:41:38;;;;;;;10.82;4.07;;;24.10;38.00;;;;;;6100710;28;81730;-61
2023/02/04 12:44:39;;;;;;;10.25;4.50;;;24.00;37.90;;;;;;6104641;28;81206;-61
2023/02/04 12:47:39;;;;;;;10.88;4.28;;;24.00;38.10;;;;;;6117517;28;80972;-60
2023/02/04 12:50:40;;;;;;;6.03;3.92;;;23.90;38.20;;;;;;6120788;28;82119;-61
2023/02/04 12:53:40;;;;;;;7.65;3.55;;;23.80;38.20;;;;;;6102756;28;80741;-60
2023/02/04 12:56:41;;;;;;;9.30;3.95;;;23.80;38.40;;;;;;6104657;28;81498;-60
2023/02/04 12:59:41;;;;;;;7.78;3.75;;;23.70;38.40;;;;;;6107383;28;80502;-60
2023/02/04 13:02:42;;;;;;;11.43;4.00;;;23.70;38.50;;;;;;6116882;28;82291;-61
2023/02/04 13:05:42;;;;;;;8.57;3.35;;;23.60;38.50;;;;;;6127540;28;81942;-60
2023/02/04 13:08:43;;;;;;;4.78;3.05;;;23.60;38.80;;;;;;6118540;28;84830;-61
2023/02/04 13:11:43;;;;;;;6.97;2.83;;;23.50;39.00;;;;;;6120190;28;80578;-62
2023/02/04 13:14:44;;;;;;;5.53;2.90;;;23.50;40.20;;;;;;6116751;28;80244;-61
2023/02/04 13:17:44;;;;;;;3.88;2.50;;;23.50;40.20;;;;;;6120552;28;81524;-61
2023/02/04 13:20:45;;;;;;;6.18;2.92;;;23.40;40.60;;;;;;6106389;28;82168;-60
2023/02/04 13:23:45;;;;;;;5.40;2.33;;;23.30;40.60;;;;;;6122382;28;82452;-63
2023/02/04 13:26:46;;;;;;;5.10;2.92;;;23.30;41.40;;;;;;6123581;28;80789;-60
2023/02/04 13:29:47;;;;;;;6.68;3.00;;;23.50;42.70;;;;;;6127950;28;81818;-60
2023/02/04 13:32:47;;;;;;;8.43;2.80;;;23.70;41.80;;;;;;6110443;28;82935;-60
2023/02/04 13:35:48;;;;;;;4.53;2.85;;;23.80;41.40;;;;;;6110337;28;85995;-60
2023/02/04 13:38:48;;;;;;;4.40;2.65;;;24.00;40.90;;;;;;6103447;28;84271;-60
2023/02/04 13:41:49;;;;;;;3.97;2.80;;;24.10;40.60;;;;;;6104393;28;81644;-60
2023/02/04 13:44:49;;;;;;;5.15;3.13;;;24.30;40.20;;;;;;6102803;28;81525;-59
2023/02/04 13:47:51;;;;;;;7.30;3.35;;;24.50;39.30;;;;;;6101820;28;80809;-59
2023/02/04 13:50:51;;;;;;;6.25;3.22;;;24.70;38.90;;;;;;6108266;28;81231;-60
2023/02/04 13:53:52;;;;;;;4.03;2.53;;;24.90;38.20;;;;;;6113983;28;80446;-60
2023/02/04 13:56:52;;;;;;;5.78;2.63;;;25.30;37.90;;;;;;6113612;28;80212;-65
2023/02/04 13:59:53;;;;;;;6.50;2.90;;;25.90;37.20;;;;;;6110021;28;80229;-64
2023/02/04 14:02:55;;;;;;;8.27;3.05;;;26.50;36.00;;;;;;6106694;28;81164;-60
2023/02/04 14:05:55;;;;;;;3.30;2.95;;;26.90;35.80;;;;;;6107600;28;80239;-61
2023/02/04 14:08:56;;;;;;;5.38;2.47;;;27.40;35.40;;;;;;6122464;28;81211;-62
2023/02/04 14:11:56;;;;;;;4.15;2.60;;;27.70;36.90;;;;;;6110309;28;86069;-63
2023/02/04 14:14:57;;;;;;;6.45;2.67;;;27.20;36.20;;;;;;6120166;28;80321;-61
2023/02/04 14:17:57;;;;;;;5.60;2.40;;;26.60;37.30;;;;;;6127329;28;80210;-61
2023/02/04 14:20:58;;;;;;;3.85;2.50;;;26.10;40.20;;;;;;6114302;28;81954;-60
2023/02/04 14:23:58;;;;;;;6.20;2.60;;;25.70;40.50;;;;;;6099285;28;80738;-62
2023/02/04 14:27:02;;;;;;;5.93;2.38;;;25.40;41.30;;;;;;6108466;28;80410;-61
2023/02/04 14:30:04;;;;;;;5.80;2.22;;;25.10;43.00;;;;;;6107351;28;85309;-62
2023/02/04 14:33:05;;;;;;;4.20;2.08;;;24.80;44.90;;;;;;6101196;28;83400;-52
2023/02/04 14:36:05;;;;;;;5.65;2.20;;;24.60;44.30;;;;;;6107326;28;81391;-52
2023/02/04 14:39:06;;;;;;;9.13;2.45;;;24.40;44.80;;;;;;6114396;28;80670;-59
2023/02/04 14:42:06;;;;;;;5.80;2.20;;;24.20;43.70;;;;;;6109842;28;80896;-54
2023/02/04 14:45:07;;;;;;;6.30;2.33;;;24.10;43.70;;;;;;6110247;28;81782;-58
2023/02/04 14:48:08;;;;;;;3.63;2.03;;;24.00;43.50;;;;;;6116484;28;80745;-54
2023/02/04 14:51:08;;;;;;;4.57;2.40;;;23.80;43.90;;;;;;6112615;28;80495;-52
2023/02/04 14:54:09;;;;;;;4.72;2.45;;;23.70;44.90;;;;;;6106120;28;82271;-53
2023/02/04 14:57:10;;;;;;;3.35;2.35;;;23.60;44.70;;;;;;6100684;28;81035;-53
2023/02/04 15:00:11;;;;;;;6.38;2.42;;;23.60;45.40;;;;;;6114691;28;80519;-55
2023/02/04 15:03:11;;;;;;;8.27;2.47;;;23.50;45.80;;;;;;6109631;28;81887;-54
2023/02/04 15:06:12;;;;;;;9.27;2.60;;;23.50;45.90;;;;;;6102594;28;81506;-51
2023/02/04 15:09:12;;;;;;;4.68;2.55;;;23.40;46.20;;;;;;6119997;28;82483;-65
2023/02/04 15:12:13;;;;;;;4.75;2.40;;;23.40;46.40;;;;;;6116164;28;80944;-66
2023/02/04 15:15:14;;;;;;;5.50;2.75;;;23.40;46.50;;;;;;6105944;28;81473;-65
2023/02/04 15:18:14;;;;;;;4.82;2.38;;;23.30;46.00;;;;;;6124253;28;81249;-65
2023/02/04 15:21:16;;;;;;;3.17;2.35;;;23.40;45.40;;;;;;6112245;28;80568;-69
2023/02/04 15:24:16;;;;;;;30.95;14.63;;;23.30;45.50;;;;;;6112642;28;80911;-66
2023/02/04 15:27:17;;;;;;;87.72;39.80;;;23.30;45.70;;;;;;6118229;28;84217;-49
2023/02/04 15:30:17;;;;;;;112.93;54.55;;;23.20;46.00;;;;;;6120020;28;84581;-51
2023/02/04 15:33:18;;;;;;;132.68;62.40;;;23.20;46.10;;;;;;6119033;28;83239;-49
2023/02/04 15:36:18;;;;;;;183.50;82.68;;;23.20;46.50;;;;;;6111829;28;83890;-50